Terminal Aerodrome Forecast
Issued by NWS

Home | Current Version | Previous Version | Text Only | Print | Product List | Glossary On
Versions: 1 2 3 4 5 6 7 8 9 10 11 12 13 14 15 16 17 18 19 20 21 22 23
000
FTUS43 KAPX 230303 AAA
TAFAPN
TAF AMD
KAPN 230303Z 2303/2324 VRB03KT 6SM BR SCT015 OVC025
     FM230600 21007KT 1 1/2SM BR OVC012
     FM230800 26006KT 3/4SM BR OVC004
     FM231100 29006KT 2SM BR BKN008
     FM231200 29007KT 3SM -DZ BR BKN008
     FM231500 33012G20KT P6SM BKN015
     FM231700 34012G20KT P6SM BKN035=

USA.gov is the U.S. government's official web portal to all federal, state and local government web resources and services.